Flight Track Log - Related Links

Times and Time Zones

All times are in EDT time to prevent confusion due to time zone crossing. See the AWI4079 flight status page for this flight to view local times or setup timezone preferences in your user account.

Time Position Orientation Groundspeed Altitude Reporting Facility
EDT Latitude Longitude Course Direction KTS MPH feet Rate Location/Type
Sun 05:26:19 AM 42.9500 -71.4167 270° West 149 171 1,400  Level KA90
Sun 05:27:26 AM 43.0106 -71.4067 North 186 214 4,100 2,220 Climbing Boston Center
Sun 05:28:26 AM 43.0383 -71.4856 296° West 210 242 6,100 2,200 Climbing Boston Center
Sun 05:29:00 AM 42.9500 -71.9408 270° West  Level FlightAware Approximate
Sun 05:29:26 AM 43.0433 -71.5992 273° West 283 326 8,500  Level Boston Center
Sun 05:30:00 AM 42.9501 -72.0688 270° West  Level FlightAware Approximate
Sun 05:30:26 AM 43.0419 -71.7014 269° West 294 338 10,600  Level Boston Center
Sun 05:31:00 AM 42.9500 -72.1969 270° West  Level FlightAware Approximate
Sun 05:31:26 AM 43.0386 -71.8294 268° West 301 346 13,600  Level Boston Center
Sun 05:32:26 AM 43.0369 -71.9372 269° West 316 364 15,900 2,250 Climbing Boston Center
Sun 05:33:26 AM 43.0333 -72.0767 268° West 328 377 18,100 1,900 Climbing Boston Center
Sun 05:34:26 AM 43.0294 -72.2014 268° West 328 377 19,700 1,545 Climbing Boston Center
Sun 05:35:38 AM 43.0047 -72.3264 255° West 333 383 21,500 1,636 Climbing Boston Center
Sun 05:36:38 AM 42.9569 -72.4797 247° West 355 409 23,300 1,550 Climbing Boston Center
Sun 05:37:38 AM 42.9172 -72.6186 249° West 373 429 24,600 1,250 Climbing Boston Center
Sun 05:38:38 AM 42.8753 -72.7261 242° Southwest 384 442 25,800 700 Climbing Boston Center
Sun 05:39:38 AM 42.8267 -72.8817 247° West 397 457 26,000 100 Climbing Boston Center
Sun 05:40:38 AM 42.7864 -73.0342 250° West 415 478 26,000  Level Boston Center
Sun 05:41:38 AM 42.7419 -73.1781 247° West 426 490 26,000  Level Boston Center
Sun 05:42:38 AM 42.6992 -73.3214 248° West 426 490 26,000  Level Boston Center
Sun 05:43:38 AM 42.6542 -73.4678 247° West 426 490 26,000  Level Boston Center
Sun 05:44:38 AM 42.6092 -73.6108 247° West 415 478 26,000  Level Boston Center
Sun 05:45:38 AM 42.5658 -73.7567 248° West 415 478 26,000  Level Boston Center
Sun 05:46:38 AM 42.5203 -73.8964 246° West 415 478 26,000  Level Boston Center
Sun 05:47:38 AM 42.4747 -74.0389 247° West 415 478 26,000  Level Boston Center
Sun 05:48:38 AM 42.4308 -74.1814 247° West 415 478 26,000  Level Boston Center
Sun 05:49:38 AM 42.3847 -74.3233 246° West 415 478 26,000  Level Boston Center
Sun 05:50:38 AM 42.3322 -74.4764 245° Southwest 415 478 26,000 -862 Level Boston Center
Sun 05:52:53 AM 42.2300 -74.7925 246° West 417 480 23,200 -1,200 Descending New York Center
Sun 05:53:53 AM 42.1969 -74.9025 248° West 411 473 22,100 -1,250 Descending New York Center
Sun 05:54:53 AM 42.1119 -75.0144 224° Southwest 390 449 20,700 -1,339 Descending New York Center
Sun 05:55:54 AM 42.0197 -75.0894 211° Southwest 384 442 19,400 -850 Descending New York Center
Sun 05:56:53 AM 41.9208 -75.1722 212° Southwest 384 442 19,000 -200 Descending New York Center
Sun 05:57:54 AM 41.8331 -75.2417 211° Southwest 384 442 19,000 -545 Level New York Center
Sun 05:58:54 AM 41.7556 -75.3031 211° Southwest 370 426 17,900 -1,311 Descending New York Center
Sun 05:59:53 AM 41.6717 -75.3725 212° Southwest 364 419 16,400 -1,750 Descending New York Center
Sun 06:00:54 AM 41.5772 -75.4492 211° Southwest 364 419 14,400 -1,850 Descending New York Center
Sun 06:01:53 AM 41.4953 -75.5153 211° Southwest 357 411 12,700 -1,210 Descending New York Center
Sun 06:02:53 AM 41.4181 -75.5764 211° Southwest 342 394 12,000 -350 Descending New York Center
Sun 06:03:53 AM 41.3383 -75.6369 210° Southwest 332 382 12,000  Level New York Center
Sun 06:04:54 AM 41.2678 -75.6842 207° Southwest 331 381 12,000  Level New York Center
Sun 06:05:55 AM 41.1747 -75.6692 173° South 300 345 12,000  Level New York Center
Sun 06:06:53 AM 41.0922 -75.6439 167° South 305 351 12,000  Level New York Center
Sun 06:07:55 AM 41.0081 -75.6161 166° South 311 358 12,000 -148 Level New York Center
Sun 06:08:55 AM 40.9239 -75.5881 166° South 317 365 11,700 -661 Descending New York Center
Sun 06:09:53 AM 40.8436 -75.5631 167° South 311 358 10,700 -864 Descending New York Center
Sun 06:10:53 AM 40.7675 -75.5358 165° South 311 358 10,000 -350 Descending New York Center
Sun 06:11:53 AM 40.6792 -75.5050 165° South 311 358 10,000  Level New York Center
Sun 06:12:53 AM 40.6008 -75.4833 168° South 306 352 10,000  Level New York Center
Sun 06:13:54 AM 40.5228 -75.4561 165° South 294 338 10,000  Level New York Center
Sun 06:14:55 AM 40.4547 -75.4378 168° South 294 338 10,000 -605 Level New York Center
Sun 06:15:53 AM 40.3672 -75.4400 181° South 288 331 8,800 -1,400 Descending New York Center
Sun 06:16:55 AM 40.2944 -75.4350 177° South 288 331 7,200 -1,400 Descending New York Center
Sun 06:17:53 AM 40.2247 -75.4061 162° South 277 319 6,000 -763 Descending New York Center
Sun 06:18:53 AM 40.1714 -75.3808 160° South 244 281 5,700 -1,041 Descending New York Center
Sun 06:19:54 AM 40.1161 -75.3553 161° South 203 234 3,900 -1,256 Descending New York Center
Sun 06:21:02 AM 40.0667 -75.3333 161° South 179 206 3,000 -443 Descending Philadelphia TRACON
Sun 06:21:56 AM 40.0167 -75.3000 153° Southeast 169 194 3,000 -440 Level Philadelphia TRACON
Sun 06:22:51 AM 39.9833 -75.2833 159° South 168 193 2,200 -842 Descending Philadelphia TRACON
Sun 06:23:50 AM 39.9500 -75.2667 159° South 142 163 1,400 -800 Descending Philadelphia TRACON
Sun 06:24:51 AM 39.9167 -75.2500 159° South 137 158 600 -787 Descending Philadelphia TRACON

Login

Don't have an account? Register now (free) for customized features, flight alerts, and more!